Time;durP1;ratioP1;P1;durP2;ratioP2;P2;SDS_P1;SDS_P2;PMS_P1;PMS_P2;Temp;Humidity;BMP_temperature;BMP_pressure;BME280_temperature;BME280_humidity;BME280_pressure;Samples;Min_cycle;Max_cycle;Signal;HPM_P1;HPM_P2
2021/08/31 00:00:05;;;;;;;0.40;0.10;;;;;;;18.94;69.94;99615.09;112059;1203;138004;-76
2021/08/31 00:02:32;;;;;;;0.40;0.10;;;;;;;18.93;70.02;99617.36;112180;1199;95469;-76
2021/08/31 00:04:58;;;;;;;0.40;0.10;;;;;;;18.88;70.11;99614.27;112043;1199;138532;-76
2021/08/31 00:07:25;;;;;;;0.40;0.10;;;;;;;18.93;69.97;99614.83;112137;1205;95385;-76
2021/08/31 00:09:52;;;;;;;0.40;0.10;;;;;;;18.98;69.88;99615.55;112241;1206;95325;-76
2021/08/31 00:12:19;;;;;;;0.40;0.10;;;;;;;18.88;69.90;99621.45;112020;1205;138200;-76
2021/08/31 00:14:46;;;;;;;0.40;0.10;;;;;;;18.85;70.27;99618.81;112211;1198;94840;-75
2021/08/31 00:17:16;;;;;;;0.40;0.10;;;;;;;18.86;70.19;99620.89;112031;1199;137752;-76
2021/08/31 00:19:46;;;;;;;0.40;0.10;;;;;;;18.75;70.53;99619.52;112166;1198;108722;-75
2021/08/31 00:22:12;;;;;;;0.40;0.10;;;;;;;18.73;70.61;99623.60;112144;1199;109296;-75
2021/08/31 00:24:40;;;;;;;0.40;0.10;;;;;;;18.69;70.89;99622.11;112039;1201;139133;-76
2021/08/31 00:27:08;;;;;;;0.40;0.10;;;;;;;18.66;70.68;99621.63;112126;1199;94830;-76
2021/08/31 00:29:35;;;;;;;0.40;0.10;;;;;;;18.67;70.67;99619.34;111981;1207;138398;-76
2021/08/31 00:32:02;;;;;;;0.40;0.10;;;;;;;18.71;70.71;99621.45;112139;1198;94935;-76
2021/08/31 00:34:28;;;;;;;0.40;0.10;;;;;;;18.66;70.71;99623.39;112081;1205;138148;-76
2021/08/31 00:36:55;;;;;;;0.40;0.10;;;;;;;18.54;70.91;99618.90;112133;1199;95373;-76
2021/08/31 00:39:21;;;;;;;0.40;0.10;;;;;;;18.53;71.18;99618.54;112194;1203;94865;-76
2021/08/31 00:41:48;;;;;;;0.40;0.10;;;;;;;18.51;71.10;99619.64;112084;1199;137361;-77
2021/08/31 00:44:28;;;;;;;0.40;0.10;;;;;;;18.42;71.19;99610.92;112146;1200;109554;-76
2021/08/31 00:46:56;;;;;;;0.40;0.10;;;;;;;18.40;71.43;99610.70;112068;1199;139874;-76
2021/08/31 00:49:23;;;;;;;0.40;0.10;;;;;;;18.48;71.49;99609.96;112184;1199;95528;-76
2021/08/31 00:51:51;;;;;;;0.40;0.10;;;;;;;18.53;71.14;99608.67;112168;1205;108575;-76
2021/08/31 00:54:19;;;;;;;0.40;0.10;;;;;;;18.41;71.14;99601.27;112022;1199;138165;-77
2021/08/31 00:56:50;;;;;;;0.40;0.10;;;;;;;18.22;71.51;99605.84;112183;1198;94852;-77
2021/08/31 00:59:20;;;;;;;0.40;0.10;;;;;;;18.10;71.85;99602.43;111990;1205;137992;-76
2021/08/31 01:01:48;;;;;;;0.40;0.10;;;;;;;18.14;72.02;99600.34;112069;1200;109304;-76
2021/08/31 01:04:19;;;;;;;0.40;0.10;;;;;;;18.22;71.74;99595.05;112526;1198;109375;-72
2021/08/31 01:06:50;;;;;;;0.40;0.10;;;;;;;18.31;71.44;99592.48;113314;1199;137911;-73
2021/08/31 01:09:17;;;;;;;0.40;0.10;;;;;;;18.38;71.23;99589.81;113311;1199;95872;-74
2021/08/31 01:11:46;;;;;;;0.40;0.10;;;;;;;18.37;71.02;99592.08;112452;1201;139282;-74
2021/08/31 01:14:13;;;;;;;0.40;0.10;;;;;;;18.44;70.72;99591.38;111919;1201;109608;-73
2021/08/31 01:16:40;;;;;;;0.40;0.10;;;;;;;18.43;70.65;99590.21;112004;1199;138451;-72
2021/08/31 01:19:06;;;;;;;0.40;0.10;;;;;;;18.45;70.39;99588.46;112107;1203;94889;-75
2021/08/31 01:21:34;;;;;;;0.40;0.10;;;;;;;18.47;70.40;99588.11;112176;1207;95269;-73
2021/08/31 01:24:01;;;;;;;0.40;0.10;;;;;;;18.35;70.43;99590.91;111811;1202;138058;-74
2021/08/31 01:26:28;;;;;;;0.40;0.10;;;;;;;18.25;70.58;99597.90;112157;1200;94921;-74
2021/08/31 01:28:55;;;;;;;0.40;0.10;;;;;;;18.16;71.05;99602.30;111868;1201;138279;-73
2021/08/31 01:31:22;;;;;;;0.40;0.10;;;;;;;18.11;71.21;99603.95;112272;1199;94830;-72
2021/08/31 01:33:49;;;;;;;0.40;0.10;;;;;;;18.08;71.09;99605.60;112148;1200;95118;-74
2021/08/31 01:36:23;;;;;;;0.40;0.10;;;;;;;17.96;71.40;99607.33;111936;1206;137512;-74
2021/08/31 01:38:52;;;;;;;0.40;0.10;;;;;;;17.90;71.72;99607.73;112087;1202;94825;-73
2021/08/31 01:41:19;;;;;;;0.40;0.10;;;;;;;17.84;71.86;99607.05;111901;1201;137924;-74
2021/08/31 01:43:46;;;;;;;0.40;0.10;;;;;;;17.83;71.97;99608.59;112109;1200;95041;-73
2021/08/31 01:46:13;;;;;;;0.40;0.10;;;;;;;17.79;71.90;99613.70;112054;1206;95394;-72
2021/08/31 01:48:39;;;;;;;0.40;0.10;;;;;;;17.75;72.09;99608.59;111967;1199;138199;-73
2021/08/31 01:51:06;;;;;;;0.40;0.10;;;;;;;17.69;72.20;99606.77;112149;1207;94429;-73
2021/08/31 01:53:34;;;;;;;0.40;0.10;;;;;;;17.69;72.46;99609.65;111897;1200;137762;-73
2021/08/31 01:56:01;;;;;;;0.40;0.10;;;;;;;17.68;72.63;99604.54;112385;1199;95368;-72
2021/08/31 01:58:28;;;;;;;0.40;0.10;;;;;;;17.67;72.49;99605.86;111867;1200;138834;-73
2021/08/31 02:00:55;;;;;;;0.40;0.10;;;;;;;17.65;72.83;99606.40;112209;1201;94847;-74
2021/08/31 02:03:22;;;;;;;0.40;0.10;;;;;;;17.57;72.93;99610.31;112011;1200;94998;-73
2021/08/31 02:05:48;;;;;;;0.40;0.10;;;;;;;17.54;72.88;99606.59;111918;1199;138044;-74
2021/08/31 02:08:15;;;;;;;0.40;0.10;;;;;;;17.52;72.85;99605.45;112087;1202;94932;-72
2021/08/31 02:10:44;;;;;;;0.40;0.10;;;;;;;17.54;73.04;99602.83;111942;1202;137378;-73
2021/08/31 02:13:10;;;;;;;0.40;0.10;;;;;;;17.64;73.05;99598.03;111973;1202;98889;-74
2021/08/31 02:15:37;;;;;;;0.40;0.10;;;;;;;17.67;72.66;99596.17;111963;1200;95312;-72
2021/08/31 02:18:04;;;;;;;0.40;0.10;;;;;;;17.73;72.70;99592.92;111826;1201;138547;-73
2021/08/31 02:20:30;;;;;;;0.40;0.10;;;;;;;17.83;72.35;99587.71;112029;1208;94856;-73
2021/08/31 02:22:57;;;;;;;0.40;0.10;;;;;;;17.85;71.82;99587.89;111914;1208;137617;-74
2021/08/31 02:25:24;;;;;;;0.40;0.10;;;;;;;17.79;72.12;99587.66;112087;1199;95840;-73
2021/08/31 02:27:51;;;;;;;0.40;0.10;;;;;;;17.76;72.08;99590.21;112012;1206;94799;-75
2021/08/31 02:30:18;;;;;;;0.40;0.10;;;;;;;17.67;72.05;99595.27;111918;1199;138049;-73
2021/08/31 02:32:45;;;;;;;0.40;0.10;;;;;;;17.62;72.39;99592.40;112085;1200;94001;-73
2021/08/31 02:35:12;;;;;;;0.40;0.10;;;;;;;17.63;72.55;99593.97;112006;1200;138509;-73
2021/08/31 02:37:39;;;;;;;0.40;0.10;;;;;;;17.67;72.56;99595.64;112042;1207;94909;-72
2021/08/31 02:40:06;;;;;;;0.40;0.10;;;;;;;17.80;72.42;99594.23;111970;1203;95443;-74
2021/08/31 02:42:32;;;;;;;0.40;0.10;;;;;;;17.84;72.15;99592.86;111911;1199;137975;-73
2021/08/31 02:44:59;;;;;;;0.40;0.10;;;;;;;17.80;71.87;99589.52;111992;1202;94810;-73
2021/08/31 02:47:26;;;;;;;0.40;0.10;;;;;;;17.87;72.01;99587.09;111938;1203;138408;-72
2021/08/31 02:49:52;;;;;;;0.40;0.10;;;;;;;17.88;71.80;99583.73;112017;1199;95437;-72
2021/08/31 02:52:19;;;;;;;0.40;0.10;;;;;;;17.95;71.76;99584.41;112105;1203;96046;-73
2021/08/31 02:54:46;;;;;;;0.40;0.10;;;;;;;17.98;71.64;99586.35;111914;1199;137317;-73
2021/08/31 02:57:12;;;;;;;0.40;0.10;;;;;;;17.92;71.57;99585.34;112119;1206;94940;-73
2021/08/31 02:59:39;;;;;;;0.40;0.10;;;;;;;17.74;71.87;99576.69;111858;1207;137611;-74
2021/08/31 03:02:06;;;;;;;0.40;0.10;;;;;;;17.62;72.33;99582.50;111887;1201;94832;-72
2021/08/31 03:04:39;;;;;;;0.40;0.10;;;;;;;17.56;72.60;99581.67;111795;1201;138385;-73
2021/08/31 03:07:14;;;;;;;0.40;0.10;;;;;;;17.47;72.86;99580.83;112109;1201;94949;-73
2021/08/31 03:09:42;;;;;;;0.40;0.10;;;;;;;17.40;72.94;99582.04;112020;1199;95296;-73
2021/08/31 03:12:09;;;;;;;0.40;0.10;;;;;;;17.45;73.19;99579.16;111821;1208;138422;-73
2021/08/31 03:14:36;;;;;;;0.40;0.10;;;;;;;17.64;72.78;99576.64;112010;1202;94824;-73
2021/08/31 03:17:03;;;;;;;0.40;0.10;;;;;;;17.74;72.31;99571.30;111862;1202;137666;-73
2021/08/31 03:19:30;;;;;;;0.40;0.10;;;;;;;17.77;72.29;99570.77;111978;1200;94787;-73
2021/08/31 03:21:58;;;;;;;0.40;0.10;;;;;;;17.78;72.04;99569.94;112057;1199;98559;-74
2021/08/31 03:24:26;;;;;;;0.40;0.10;;;;;;;17.77;72.11;99567.88;111942;1201;138908;-72
2021/08/31 03:26:53;;;;;;;0.40;0.10;;;;;;;17.83;72.08;99568.68;112005;1200;94922;-73
2021/08/31 03:29:20;;;;;;;0.40;0.10;;;;;;;17.79;71.75;99569.67;111851;1201;137941;-72
2021/08/31 03:31:47;;;;;;;0.40;0.10;;;;;;;17.75;72.04;99568.51;112023;1208;94914;-72
2021/08/31 03:34:14;;;;;;;0.40;0.10;;;;;;;17.73;72.16;99569.34;111913;1201;95296;-73
2021/08/31 03:36:40;;;;;;;0.40;0.10;;;;;;;17.75;72.06;99567.44;111878;1208;137871;-74
2021/08/31 03:39:07;;;;;;;0.40;0.10;;;;;;;17.68;72.00;99563.96;112063;1202;95331;-73
2021/08/31 03:41:33;;;;;;;0.40;0.10;;;;;;;17.62;72.29;99561.86;111963;1200;137936;-72
2021/08/31 03:44:00;;;;;;;0.40;0.10;;;;;;;17.51;72.39;99569.64;111953;1206;94917;-73
2021/08/31 03:46:27;;;;;;;0.40;0.10;;;;;;;17.38;72.60;99573.73;112008;1202;94905;-73
2021/08/31 03:48:54;;;;;;;0.40;0.10;;;;;;;17.36;72.74;99576.76;111933;1207;138484;-72
2021/08/31 03:51:21;;;;;;;0.40;0.10;;;;;;;17.36;72.79;99580.34;111969;1202;96038;-72
2021/08/31 03:53:47;;;;;;;0.40;0.10;;;;;;;17.36;72.68;99579.77;111981;1200;138547;-73
2021/08/31 03:56:14;;;;;;;0.40;0.10;;;;;;;17.28;72.82;99581.27;111986;1200;108331;-73
2021/08/31 03:58:40;;;;;;;0.40;0.10;;;;;;;17.19;72.99;99577.00;111855;1200;137914;-73
2021/08/31 04:01:07;;;;;;;0.40;0.10;;;;;;;17.17;73.37;99578.21;112028;1201;99151;-73
2021/08/31 04:03:34;;;;;;;0.40;0.10;;;;;;;17.17;73.10;99580.20;112006;1200;95217;-73
2021/08/31 04:06:01;;;;;;;0.40;0.10;;;;;;;17.22;73.22;99578.92;111922;1206;139343;-73
2021/08/31 04:08:27;;;;;;;0.40;0.10;;;;;;;17.25;72.72;99580.19;112135;1199;94825;-72
2021/08/31 04:10:54;;;;;;;0.40;0.10;;;;;;;17.24;72.54;99585.30;111952;1201;138700;-73
2021/08/31 04:13:21;;;;;;;0.40;0.10;;;;;;;17.32;72.47;99590.50;112048;1199;94831;-73
2021/08/31 04:15:48;;;;;;;0.40;0.10;;;;;;;17.37;72.03;99591.95;112150;1206;94840;-72
2021/08/31 04:18:14;;;;;;;0.40;0.10;;;;;;;17.49;71.75;99600.45;112019;1200;137339;-74
2021/08/31 04:20:41;;;;;;;0.40;0.10;;;;;;;17.55;71.34;99602.19;112100;1199;95498;-71
2021/08/31 04:23:08;;;;;;;0.40;0.10;;;;;;;17.64;71.14;99609.48;112199;1199;139774;-72
2021/08/31 04:25:35;;;;;;;0.40;0.10;;;;;;;17.73;70.73;99611.06;112154;1200;95307;-72
2021/08/31 04:28:02;;;;;;;0.40;0.10;;;;;;;17.78;70.44;99611.96;112089;1199;95522;-73
2021/08/31 04:30:28;;;;;;;0.40;0.10;;;;;;;17.82;70.23;99614.92;111854;1199;138007;-73
2021/08/31 04:32:55;;;;;;;0.40;0.10;;;;;;;17.85;69.96;99617.58;112022;1208;94853;-74
2021/08/31 04:35:22;;;;;;;0.40;0.10;;;;;;;17.82;69.93;99627.10;112059;1206;138346;-73
2021/08/31 04:37:48;;;;;;;0.40;0.10;;;;;;;17.80;70.00;99625.27;112068;1199;95390;-74
2021/08/31 04:40:15;;;;;;;0.40;0.10;;;;;;;17.82;70.10;99628.00;112075;1199;96364;-73
2021/08/31 04:42:42;;;;;;;0.40;0.10;;;;;;;17.85;69.98;99629.40;111967;1200;137718;-73
2021/08/31 04:45:09;;;;;;;0.40;0.10;;;;;;;17.83;70.61;99631.19;111968;1206;94807;-72
2021/08/31 04:47:36;;;;;;;0.40;0.10;;;;;;;17.70;70.62;99629.56;111886;1207;138055;-71
2021/08/31 04:50:03;;;;;;;0.40;0.10;;;;;;;17.47;70.86;99628.43;112140;1199;94839;-73
2021/08/31 04:52:30;;;;;;;0.40;0.10;;;;;;;17.43;71.59;99629.98;112059;1200;95503;-73
2021/08/31 04:54:57;;;;;;;0.40;0.10;;;;;;;17.37;71.40;99628.69;111977;1200;138775;-72
2021/08/31 04:57:24;;;;;;;0.40;0.10;;;;;;;17.24;71.71;99627.29;112086;1200;95366;-73
2021/08/31 04:59:50;;;;;;;0.40;0.10;;;;;;;17.12;71.90;99621.41;111990;1203;137584;-72
2021/08/31 05:02:17;;;;;;;0.40;0.10;;;;;;;17.11;72.30;99619.64;112058;1199;94836;-75
2021/08/31 05:04:44;;;;;;;0.40;0.10;;;;;;;17.20;72.26;99615.85;111990;1199;137729;-72
2021/08/31 05:07:11;;;;;;;0.40;0.10;;;;;;;17.21;72.48;99616.30;112052;1206;109431;-73
2021/08/31 05:09:42;;;;;;;0.40;0.10;;;;;;;17.26;72.28;99612.44;112038;1199;109526;-74
2021/08/31 05:12:10;;;;;;;0.40;0.10;;;;;;;17.44;72.28;99614.60;111995;1199;138164;-71
2021/08/31 05:14:36;;;;;;;0.40;0.10;;;;;;;17.64;72.08;99613.11;112128;1199;95365;-73
2021/08/31 05:17:03;;;;;;;0.40;0.10;;;;;;;17.76;71.72;99613.88;111965;1199;137891;-73
2021/08/31 05:19:32;;;;;;;0.40;0.10;;;;;;;17.85;71.34;99613.79;112028;1200;95370;-73
2021/08/31 05:22:01;;;;;;;0.40;0.10;;;;;;;17.81;71.07;99613.20;112149;1200;94820;-72
2021/08/31 05:24:29;;;;;;;0.40;0.10;;;;;;;17.82;71.19;99613.85;111905;1199;139095;-73
2021/08/31 05:26:56;;;;;;;0.40;0.10;;;;;;;17.84;70.70;99612.61;112421;1199;108446;-73
2021/08/31 05:29:23;;;;;;;0.40;0.10;;;;;;;17.74;70.71;99615.27;111973;1200;138424;-73
2021/08/31 05:31:51;;;;;;;0.40;0.10;;;;;;;17.64;70.95;99615.75;112060;1199;94877;-73
2021/08/31 05:34:18;;;;;;;0.40;0.10;;;;;;;17.58;71.66;99617.65;112070;1201;95314;-72
2021/08/31 05:36:45;;;;;;;0.40;0.10;;;;;;;17.52;71.40;99616.92;111989;1199;139448;-72
2021/08/31 05:39:12;;;;;;;0.40;0.10;;;;;;;17.43;71.55;99616.31;112059;1202;95074;-73
2021/08/31 05:41:40;;;;;;;0.40;0.10;;;;;;;17.43;71.81;99615.98;112035;1199;139480;-73
2021/08/31 05:44:07;;;;;;;0.40;0.10;;;;;;;17.55;72.07;99622.88;112098;1200;94854;-73
2021/08/31 05:46:34;;;;;;;0.40;0.10;;;;;;;17.65;71.47;99623.27;112125;1200;97125;-73
2021/08/31 05:49:01;;;;;;;0.40;0.10;;;;;;;17.79;71.41;99614.02;111902;1200;137772;-72
2021/08/31 05:51:27;;;;;;;0.40;0.10;;;;;;;17.81;70.88;99606.36;112137;1199;95211;-72
2021/08/31 05:53:55;;;;;;;0.40;0.10;;;;;;;17.72;71.46;99613.24;112032;1199;137622;-75
2021/08/31 05:56:22;;;;;;;0.40;0.10;;;;;;;17.74;71.78;99615.84;112071;1199;95412;-73
2021/08/31 05:58:50;;;;;;;0.40;0.10;;;;;;;17.75;71.24;99609.99;111879;1199;138046;-73
2021/08/31 06:01:17;;;;;;;0.40;0.10;;;;;;;17.68;71.48;99607.77;112172;1200;109681;-72
2021/08/31 06:03:47;;;;;;;0.40;0.10;;;;;;;17.67;71.02;99606.96;112033;1200;94846;-72
2021/08/31 06:06:15;;;;;;;0.40;0.10;;;;;;;17.66;71.26;99602.73;112030;1206;138136;-73
2021/08/31 06:08:42;;;;;;;0.40;0.10;;;;;;;17.60;71.13;99599.55;112127;1200;108721;-73
2021/08/31 06:11:09;;;;;;;0.40;0.10;;;;;;;17.61;71.47;99600.89;111962;1199;138878;-73
2021/08/31 06:13:36;;;;;;;0.40;0.10;;;;;;;17.58;71.11;99597.73;111956;1201;94957;-72
2021/08/31 06:16:03;;;;;;;0.40;0.10;;;;;;;17.51;70.75;99604.97;112165;1199;95363;-72
2021/08/31 06:18:30;;;;;;;0.40;0.10;;;;;;;17.55;71.99;99606.19;111928;1199;139194;-71
2021/08/31 06:20:56;;;;;;;0.40;0.10;;;;;;;17.75;71.56;99606.60;112081;1201;95132;-73
2021/08/31 06:23:25;;;;;;;0.40;0.10;;;;;;;17.82;70.52;99606.98;111926;1199;141216;-74
2021/08/31 06:25:53;;;;;;;0.40;0.10;;;;;;;17.80;70.77;99615.59;112127;1206;96419;-73
2021/08/31 06:28:19;;;;;;;0.40;0.10;;;;;;;17.83;70.82;99613.37;112027;1200;94918;-72
2021/08/31 06:30:46;;;;;;;0.40;0.10;;;;;;;17.87;70.61;99613.81;111959;1206;139684;-74
2021/08/31 06:33:13;;;;;;;0.40;0.10;;;;;;;17.98;70.43;99613.86;111999;1202;94839;-73
2021/08/31 06:35:40;;;;;;;0.40;0.10;;;;;;;18.07;70.31;99615.34;111944;1199;139140;-72
2021/08/31 06:38:06;;;;;;;0.40;0.10;;;;;;;18.24;69.83;99616.89;112072;1200;96693;-72
2021/08/31 06:40:33;;;;;;;0.40;0.10;;;;;;;18.38;69.43;99613.54;112052;1200;94925;-73
2021/08/31 06:43:00;;;;;;;0.40;0.10;;;;;;;18.48;68.86;99615.33;111885;1206;137571;-73
2021/08/31 06:45:26;;;;;;;0.40;0.10;;;;;;;18.53;68.36;99619.98;111974;1200;94820;-72
2021/08/31 06:47:53;;;;;;;0.40;0.10;;;;;;;18.35;67.95;99618.23;112034;1206;139496;-75
2021/08/31 06:50:20;;;;;;;0.40;0.10;;;;;;;18.23;68.93;99618.59;112267;1200;94921;-72
2021/08/31 06:52:47;;;;;;;0.40;0.10;;;;;;;18.07;67.92;99618.79;112069;1200;137340;-72
2021/08/31 06:55:15;;;;;;;0.40;0.10;;;;;;;18.04;69.26;99618.27;112335;1200;95536;-73
2021/08/31 06:57:42;;;;;;;0.40;0.10;;;;;;;18.07;69.51;99614.09;112277;1200;95318;-72
2021/08/31 07:00:09;;;;;;;0.40;0.10;;;;;;;18.02;69.23;99614.48;112276;1199;138415;-73
2021/08/31 07:02:36;;;;;;;0.40;0.10;;;;;;;18.03;68.99;99622.46;112258;1198;94844;-74
2021/08/31 07:05:04;;;;;;;0.40;0.10;;;;;;;18.02;68.18;99628.79;112102;1201;139131;-74
2021/08/31 07:07:30;;;;;;;0.40;0.10;;;;;;;18.08;69.07;99627.50;112360;1200;94913;-74
2021/08/31 07:09:58;;;;;;;0.40;0.10;;;;;;;18.24;69.48;99622.99;112345;1199;94985;-73
2021/08/31 07:12:25;;;;;;;0.40;0.10;;;;;;;18.42;68.49;99619.89;112259;1199;138338;-73
2021/08/31 07:14:53;;;;;;;0.40;0.10;;;;;;;18.55;67.12;99616.98;112262;1202;95347;-74
2021/08/31 07:17:19;;;;;;;0.40;0.10;;;;;;;18.56;68.43;99618.20;112186;1199;137927;-75
2021/08/31 07:19:47;;;;;;;0.40;0.10;;;;;;;18.49;67.17;99615.82;112283;1206;94850;-73
2021/08/31 07:22:16;;;;;;;0.40;0.10;;;;;;;18.48;67.39;99617.70;112245;1203;94926;-75
2021/08/31 07:24:44;;;;;;;0.40;0.10;;;;;;;18.56;67.37;99620.02;112164;1206;137937;-74
2021/08/31 07:27:14;;;;;;;0.40;0.10;;;;;;;18.55;67.75;99626.14;112234;1206;95668;-74
2021/08/31 07:29:40;;;;;;;0.40;0.10;;;;;;;18.61;67.48;99628.80;112184;1200;137549;-74
2021/08/31 07:32:07;;;;;;;0.40;0.10;;;;;;;18.52;66.31;99631.05;112221;1206;94894;-73
2021/08/31 07:34:34;;;;;;;0.40;0.10;;;;;;;18.42;66.65;99634.27;112271;1200;95462;-73
2021/08/31 07:37:01;;;;;;;0.40;0.10;;;;;;;18.37;67.42;99635.51;112155;1206;138155;-74
2021/08/31 07:39:28;;;;;;;0.40;0.10;;;;;;;18.32;67.66;99637.33;112234;1202;95006;-75
2021/08/31 07:41:54;;;;;;;0.40;0.10;;;;;;;18.34;68.61;99631.39;112233;1199;137565;-77
2021/08/31 07:44:21;;;;;;;0.40;0.10;;;;;;;18.33;68.42;99632.77;112256;1200;108785;-75
2021/08/31 07:46:48;;;;;;;0.40;0.10;;;;;;;18.39;68.42;99629.85;112203;1207;137993;-73
2021/08/31 07:49:15;;;;;;;0.40;0.10;;;;;;;18.64;66.32;99626.98;112252;1205;94860;-75
2021/08/31 07:51:42;;;;;;;0.40;0.10;;;;;;;18.77;65.91;99627.06;112175;1209;95205;-75
2021/08/31 07:54:09;;;;;;;0.40;0.10;;;;;;;18.81;66.06;99624.81;112087;1202;137394;-75
2021/08/31 07:56:37;;;;;;;0.40;0.10;;;;;;;18.79;65.76;99626.56;112225;1202;95356;-73
2021/08/31 07:59:04;;;;;;;0.40;0.10;;;;;;;18.92;64.81;99631.23;112176;1200;138024;-77
2021/08/31 08:01:31;;;;;;;0.40;0.10;;;;;;;19.06;64.61;99630.56;112178;1199;94957;-76
2021/08/31 08:03:59;;;;;;;0.40;0.10;;;;;;;19.05;64.58;99631.76;112300;1204;94811;-75
2021/08/31 08:06:26;;;;;;;0.40;0.10;;;;;;;19.18;64.44;99641.77;112199;1200;138550;-75
2021/08/31 08:08:54;;;;;;;0.40;0.10;;;;;;;19.27;63.67;99644.20;112316;1201;94911;-76
2021/08/31 08:11:21;;;;;;;0.40;0.10;;;;;;;19.33;63.57;99646.80;112227;1206;138394;-75
2021/08/31 08:13:48;;;;;;;0.40;0.10;;;;;;;19.35;62.95;99640.67;112348;1206;95378;-74
2021/08/31 08:16:14;;;;;;;0.40;0.10;;;;;;;19.31;64.47;99648.55;112327;1200;94865;-75
2021/08/31 08:18:41;;;;;;;0.40;0.10;;;;;;;19.28;63.84;99647.67;111995;1206;137789;-75
2021/08/31 08:21:08;;;;;;;0.40;0.10;;;;;;;19.39;63.62;99643.23;112038;1202;94957;-74
2021/08/31 08:23:34;;;;;;;0.40;0.10;;;;;;;19.46;62.37;99636.44;112017;1206;137241;-73
2021/08/31 08:26:03;;;;;;;0.40;0.10;;;;;;;19.48;62.54;99636.66;112127;1199;95488;-74
2021/08/31 08:28:30;;;;;;;0.40;0.10;;;;;;;19.45;61.78;99641.92;112161;1200;94854;-74
2021/08/31 08:30:56;;;;;;;0.40;0.10;;;;;;;19.46;62.78;99641.14;112095;1205;139117;-75
2021/08/31 08:33:24;;;;;;;0.40;0.10;;;;;;;19.60;62.99;99636.13;112228;1200;94952;-74
2021/08/31 08:35:51;;;;;;;0.40;0.10;;;;;;;19.73;62.66;99635.65;112012;1200;138699;-76
2021/08/31 08:38:19;;;;;;;0.40;0.10;;;;;;;19.76;61.00;99633.25;112243;1200;95157;-74
2021/08/31 08:40:46;;;;;;;0.40;0.10;;;;;;;19.73;62.31;99635.09;112058;1207;137477;-75
2021/08/31 08:43:14;;;;;;;0.40;0.10;;;;;;;19.65;63.07;99636.24;112242;1201;94859;-77
2021/08/31 08:45:46;;;;;;;0.40;0.10;;;;;;;19.73;62.94;99630.98;112215;1207;95524;-75
2021/08/31 08:48:21;;;;;;;0.40;0.10;;;;;;;19.86;62.57;99626.06;112109;1208;138242;-77
2021/08/31 08:50:49;;;;;;;0.40;0.10;;;;;;;19.87;61.91;99628.11;112278;1206;94833;-75
2021/08/31 08:53:16;;;;;;;0.40;0.10;;;;;;;19.95;62.63;99624.46;112156;1203;138164;-75
2021/08/31 08:55:43;;;;;;;0.40;0.10;;;;;;;20.05;61.51;99618.98;112271;1199;108837;-75
2021/08/31 08:58:10;;;;;;;0.40;0.10;;;;;;;20.19;60.65;99619.32;112264;1199;94883;-76
2021/08/31 09:00:53;;;;;;;0.40;0.10;;;;;;;20.33;59.64;99620.91;112036;1200;137855;-75
2021/08/31 09:03:22;;;;;;;0.40;0.10;;;;;;;20.40;58.85;99624.34;112042;1208;95601;-74
2021/08/31 09:06:03;;;;;;;0.40;0.10;;;;;;;20.50;58.95;99618.88;112024;1201;137265;-76
2021/08/31 09:08:30;;;;;;;0.40;0.10;;;;;;;20.61;58.34;99619.96;112239;1200;109573;-74
2021/08/31 09:10:56;;;;;;;0.40;0.10;;;;;;;20.73;58.48;99621.55;112150;1199;137952;-75
2021/08/31 09:13:23;;;;;;;0.40;0.10;;;;;;;21.00;58.47;99620.60;112306;1200;94939;-74
2021/08/31 09:15:50;;;;;;;0.40;0.10;;;;;;;21.19;58.61;99622.54;112254;1200;94861;-76
2021/08/31 09:18:19;;;;;;;0.40;0.10;;;;;;;21.36;57.63;99629.23;112189;1207;138252;-74
2021/08/31 09:21:01;;;;;;;0.40;0.00;;;;;;;21.49;57.89;99635.20;112315;1207;94899;-75
2021/08/31 09:23:30;;;;;;;0.40;0.00;;;;;;;21.69;56.73;99635.55;112191;1208;137831;-77
2021/08/31 09:26:09;;;;;;;0.40;0.10;;;;;;;21.94;55.08;99645.15;112323;1200;107884;-78
2021/08/31 09:28:38;;;;;;;0.40;0.00;;;;;;;21.95;54.69;99644.48;112342;1208;110181;-78
2021/08/31 09:31:20;;;;;;;0.40;0.10;;;;;;;21.78;54.05;99643.08;112217;1200;138158;-76
2021/08/31 09:33:52;;;;;;;0.40;0.00;;;;;;;22.10;55.12;99643.77;112123;1200;94911;-74
2021/08/31 09:36:24;;;;;;;0.40;0.10;;;;;;;22.16;54.63;99645.98;112172;1207;138432;-78
2021/08/31 09:38:56;;;;;;;0.40;0.10;;;;;;;22.41;54.76;99644.17;112285;1200;109528;-77
2021/08/31 09:41:45;;;;;;;0.40;0.10;;;;;;;22.88;54.11;99648.17;112239;1207;137340;-75
2021/08/31 09:44:24;;;;;;;0.40;0.00;;;;;;;22.84;53.40;99648.85;112328;1206;96047;-75
2021/08/31 09:47:00;;;;;;;0.40;0.10;;;;;;;22.67;54.19;99653.48;112316;1206;138071;-75
2021/08/31 09:49:40;;;;;;;0.40;0.10;;;;;;;22.90;52.87;99658.95;112369;1200;109538;-75
2021/08/31 09:52:12;;;;;;;0.40;0.10;;;;;;;23.35;51.51;99664.26;112296;1207;95351;-77
2021/08/31 09:54:42;;;;;;;0.40;0.10;;;;;;;23.01;51.77;99668.04;112251;1206;137415;-75
2021/08/31 09:57:25;;;;;;;0.40;0.00;;;;;;;22.69;53.21;99672.11;112320;1207;107131;-75
2021/08/31 09:59:52;;;;;;;0.40;0.00;;;;;;;22.30;53.94;99666.98;112272;1200;137767;-75
2021/08/31 10:02:19;;;;;;;0.40;0.00;;;;;;;22.04;54.14;99664.85;112382;1201;94839;-74
2021/08/31 10:04:52;;;;;;;0.40;0.10;;;;;;;21.94;53.75;99660.64;112261;1200;137356;-78
2021/08/31 10:07:21;;;;;;;0.40;0.00;;;;;;;22.38;53.14;99660.31;112413;1202;108562;-75
2021/08/31 10:09:49;;;;;;;0.40;0.10;;;;;;;22.44;52.95;99653.65;112354;1202;108770;-75
2021/08/31 10:12:18;;;;;;;0.40;0.10;;;;;;;23.33;51.71;99656.02;112321;1200;137422;-75
2021/08/31 10:14:46;;;;;;;0.40;0.10;;;;;;;24.13;49.07;99658.95;112391;1206;95060;-75
2021/08/31 10:17:13;;;;;;;0.40;0.00;;;;;;;25.16;47.44;99647.40;112345;1200;141144;-74
2021/08/31 10:19:43;;;;;;;0.40;0.00;;;;;;;25.83;47.10;99643.91;112316;1200;95055;-75
2021/08/31 10:22:11;;;;;;;0.40;0.00;;;;;;;26.18;45.82;99638.36;112340;1200;97330;-74
2021/08/31 10:24:42;;;;;;;0.40;0.00;;;;;;;26.14;44.17;99639.26;112218;1202;137408;-74
2021/08/31 10:27:37;;;;;;;0.40;0.00;;;;;;;26.16;44.28;99638.23;112324;1201;108765;-75
2021/08/31 10:30:13;;;;;;;0.40;0.00;;;;;;;27.13;42.21;99639.18;112283;1206;138880;-73
2021/08/31 10:32:40;;;;;;;0.40;0.00;;;;;;;26.70;42.97;99639.15;112301;1200;94897;-75
2021/08/31 10:35:08;;;;;;;0.40;0.00;;;;;;;26.07;44.61;99638.08;112243;1199;137560;-74
2021/08/31 10:37:44;;;;;;;0.40;0.00;;;;;;;25.47;45.03;99646.00;112313;1206;107137;-75
2021/08/31 10:40:11;;;;;;;0.40;0.00;;;;;;;24.88;46.44;99646.90;112203;1201;109668;-76
2021/08/31 10:42:40;;;;;;;0.40;0.00;;;;;;;24.61;46.96;99646.58;112200;1200;137706;-75
2021/08/31 10:45:24;;;;;;;0.40;0.00;;;;;;;24.83;46.40;99648.29;112362;1200;94870;-77
2021/08/31 10:47:52;;;;;;;0.40;0.00;;;;;;;24.99;46.20;99646.62;112022;1206;137689;-78
2021/08/31 10:50:21;;;;;;;0.40;0.00;;;;;;;25.21;45.26;99645.99;112349;1200;94832;-76
2021/08/31 10:52:56;;;;;;;0.40;0.00;;;;;;;24.71;46.21;99646.75;112189;1200;137437;-74
2021/08/31 10:55:23;;;;;;;0.40;0.00;;;;;;;24.49;47.48;99653.41;112329;1200;95013;-74
2021/08/31 10:58:01;;;;;;;0.40;0.00;;;;;;;24.44;48.62;99655.66;112268;1200;94924;-75
2021/08/31 11:00:28;;;;;;;0.40;0.00;;;;;;;24.13;47.93;99658.09;112191;1206;137584;-74
2021/08/31 11:02:59;;;;;;;0.40;0.00;;;;;;;23.70;48.24;99655.39;112308;1200;94876;-78
2021/08/31 11:05:31;;;;;;;0.40;0.00;;;;;;;23.47;49.29;99657.64;112236;1199;137758;-76
2021/08/31 11:08:01;;;;;;;0.40;0.10;;;;;;;23.35;49.80;99657.02;112492;1200;108990;-75
2021/08/31 11:10:44;;;;;;;0.40;0.00;;;;;;;23.20;49.88;99661.73;112308;1206;110071;-76
2021/08/31 11:13:13;;;;;;;0.40;0.00;;;;;;;23.09;50.65;99654.06;112272;1199;137214;-74
2021/08/31 11:15:40;;;;;;;0.40;0.00;;;;;;;22.91;50.16;99652.05;112330;1206;94969;-75
2021/08/31 11:18:08;;;;;;;0.40;0.10;;;;;;;22.80;50.75;99649.10;112255;1200;137261;-77
2021/08/31 11:20:37;;;;;;;0.40;0.00;;;;;;;22.81;50.78;99650.55;112351;1200;109384;-74
2021/08/31 11:23:10;;;;;;;0.40;0.10;;;;;;;22.81;50.32;99650.59;112261;1200;138107;-77
2021/08/31 11:25:44;;;;;;;0.40;0.00;;;;;;;22.88;50.54;99655.00;112289;1207;95203;-77